Time;durP1;ratioP1;P1;durP2;ratioP2;P2;SDS_P1;SDS_P2;PMS_P1;PMS_P2;Temp;Humidity;BMP_temperature;BMP_pressure;BME280_temperature;BME280_humidity;BME280_pressure;Samples;Min_cycle;Max_cycle;Signal;HPM_P1;HPM_P2
2023/05/20 00:00:27;;;;;;;13.80;8.13;;;10.80;99.90;;;;;;5084170;28;20050;-73
2023/05/20 00:02:53;;;;;;;13.77;7.88;;;10.70;99.90;;;;;;5082000;28;20054;-73
2023/05/20 00:05:19;;;;;;;13.82;8.05;;;10.80;99.90;;;;;;5102903;28;20052;-73
2023/05/20 00:07:45;;;;;;;12.20;7.18;;;10.80;99.90;;;;;;5085275;28;20383;-73
2023/05/20 00:10:10;;;;;;;11.93;7.35;;;10.70;99.90;;;;;;5140153;27;20134;-74
2023/05/20 00:12:37;;;;;;;12.30;7.40;;;10.70;99.90;;;;;;5069877;28;20044;-72
2023/05/20 00:15:04;;;;;;;14.85;8.15;;;10.70;99.90;;;;;;5103091;28;20130;-74
2023/05/20 00:17:30;;;;;;;14.23;7.63;;;10.60;99.90;;;;;;5103564;28;20123;-72
2023/05/20 00:19:56;;;;;;;13.32;7.93;;;10.60;99.90;;;;;;5102401;28;20138;-73
2023/05/20 00:22:21;;;;;;;10.65;7.60;;;10.50;99.90;;;;;;5118735;27;20228;-73
2023/05/20 00:24:47;;;;;;;12.35;8.48;;;10.50;99.90;;;;;;5105145;28;20042;-73
2023/05/20 00:27:13;;;;;;;14.40;8.43;;;10.50;99.90;;;;;;5087529;28;21212;-74
2023/05/20 00:29:39;;;;;;;15.73;8.05;;;10.50;99.90;;;;;;5066691;28;20036;-73
2023/05/20 00:32:05;;;;;;;15.25;8.13;;;10.50;99.90;;;;;;5082474;28;20379;-73
2023/05/20 00:34:31;;;;;;;13.00;7.68;;;10.50;99.90;;;;;;5084847;28;20146;-72
2023/05/20 00:36:57;;;;;;;14.75;8.00;;;10.50;99.90;;;;;;5085008;28;20134;-72
2023/05/20 00:39:22;;;;;;;12.52;7.72;;;10.50;99.90;;;;;;5098601;28;20078;-72
2023/05/20 00:41:48;;;;;;;13.82;8.32;;;10.50;99.90;;;;;;5099901;28;20042;-72
2023/05/20 00:44:14;;;;;;;12.52;8.23;;;10.50;99.90;;;;;;5101901;28;20063;-72
2023/05/20 00:46:40;;;;;;;14.63;8.20;;;10.50;99.90;;;;;;5084929;28;20075;-72
2023/05/20 00:49:06;;;;;;;13.88;7.80;;;10.50;99.90;;;;;;5100485;28;20825;-72
2023/05/20 00:51:36;;;;;;;13.48;7.95;;;10.50;99.90;;;;;;5098382;28;20047;-73
2023/05/20 00:54:02;;;;;;;13.20;8.05;;;10.40;99.90;;;;;;5099223;28;20036;-72
2023/05/20 00:56:28;;;;;;;14.63;8.77;;;10.40;99.90;;;;;;5047288;28;20494;-72
2023/05/20 00:58:56;;;;;;;11.68;8.15;;;10.40;99.90;;;;;;5077755;28;20436;-72
2023/05/20 01:01:25;;;;;;;12.63;8.05;;;10.40;99.90;;;;;;5091980;28;20143;-72
2023/05/20 01:03:54;;;;;;;14.93;8.60;;;10.40;99.90;;;;;;5116539;27;20040;-72
2023/05/20 01:06:19;;;;;;;13.75;8.23;;;10.40;99.90;;;;;;5100386;28;20036;-72
2023/05/20 01:08:45;;;;;;;13.85;8.82;;;10.30;99.90;;;;;;5063363;28;20117;-72
2023/05/20 01:11:32;;;;;;;13.80;8.77;;;10.30;99.90;;;;;;5068646;28;20082;-72
2023/05/20 01:14:02;;;;;;;13.38;8.55;;;10.30;99.90;;;;;;5099207;28;20129;-72
2023/05/20 01:16:32;;;;;;;12.93;8.32;;;10.30;99.90;;;;;;5102880;28;20122;-72
2023/05/20 01:19:01;;;;;;;11.98;7.80;;;10.30;99.90;;;;;;5101287;28;20367;-72
2023/05/20 01:21:31;;;;;;;14.65;8.50;;;10.30;99.90;;;;;;5102010;28;20119;-72
2023/05/20 01:23:57;;;;;;;11.30;8.25;;;10.30;99.90;;;;;;5109745;27;20040;-72
2023/05/20 01:26:25;;;;;;;12.25;8.00;;;10.30;99.90;;;;;;5101843;28;20036;-72
2023/05/20 01:28:56;;;;;;;14.20;8.65;;;10.40;99.90;;;;;;5081692;28;20092;-72
2023/05/20 01:31:32;;;;;;;12.57;8.10;;;10.40;99.90;;;;;;5084578;28;20040;-72
2023/05/20 01:33:59;;;;;;;12.63;8.30;;;10.40;99.90;;;;;;5113136;27;20048;-72
2023/05/20 01:36:26;;;;;;;11.95;8.60;;;10.50;99.90;;;;;;5099664;28;20183;-72
2023/05/20 01:38:53;;;;;;;11.75;7.90;;;10.40;99.90;;;;;;5083098;28;20054;-72
2023/05/20 01:41:21;;;;;;;10.55;7.97;;;10.40;99.90;;;;;;5085279;28;20043;-72
2023/05/20 01:43:47;;;;;;;13.48;8.20;;;10.50;99.90;;;;;;5115226;27;20102;-72
2023/05/20 01:46:14;;;;;;;12.40;8.18;;;10.50;99.90;;;;;;5084673;28;20067;-72
2023/05/20 01:48:40;;;;;;;14.00;7.93;;;10.50;99.90;;;;;;5096164;28;20043;-72
2023/05/20 01:51:09;;;;;;;12.82;8.15;;;10.50;99.90;;;;;;5100952;28;20494;-72
2023/05/20 01:53:34;;;;;;;10.90;8.40;;;10.50;99.90;;;;;;5082346;28;20544;-72
2023/05/20 01:56:00;;;;;;;10.52;8.18;;;10.40;99.90;;;;;;5102257;28;20039;-72
2023/05/20 01:58:26;;;;;;;11.32;7.95;;;10.40;99.90;;;;;;5078159;28;20054;-71
2023/05/20 02:00:51;;;;;;;11.52;8.50;;;10.40;99.90;;;;;;5070439;28;20050;-72
2023/05/20 02:03:17;;;;;;;13.57;8.65;;;10.40;99.90;;;;;;5058341;28;20036;-72
2023/05/20 02:05:43;;;;;;;14.77;8.55;;;10.40;99.90;;;;;;5131523;27;20040;-72
2023/05/20 02:08:09;;;;;;;11.77;8.68;;;10.40;99.90;;;;;;5090753;28;20047;-72
2023/05/20 02:10:35;;;;;;;10.80;8.23;;;10.30;99.90;;;;;;5087685;28;20048;-72
2023/05/20 02:13:00;;;;;;;11.88;7.93;;;10.30;99.90;;;;;;5075152;28;20048;-72
2023/05/20 02:15:26;;;;;;;13.15;8.85;;;10.30;99.90;;;;;;5073006;28;20044;-72
2023/05/20 02:17:52;;;;;;;13.73;8.35;;;10.30;99.90;;;;;;5096569;28;20090;-72
2023/05/20 02:20:21;;;;;;;12.38;8.38;;;10.30;99.90;;;;;;5073576;28;20043;-72
2023/05/20 02:22:53;;;;;;;11.90;8.10;;;10.20;99.90;;;;;;5095319;28;20535;-72
2023/05/20 02:25:18;;;;;;;10.70;7.80;;;10.20;99.90;;;;;;5080136;28;20040;-72
2023/05/20 02:27:44;;;;;;;13.88;7.47;;;10.20;99.90;;;;;;5115095;27;20051;-72
2023/05/20 02:30:10;;;;;;;12.25;8.30;;;10.20;99.90;;;;;;5067552;28;20055;-72
2023/05/20 02:32:36;;;;;;;12.27;7.90;;;10.20;99.90;;;;;;5079651;28;20503;-72
2023/05/20 02:35:02;;;;;;;13.95;7.85;;;10.20;99.90;;;;;;5082668;28;20146;-72
2023/05/20 02:37:28;;;;;;;12.35;8.35;;;10.20;99.90;;;;;;5085611;28;20216;-72
2023/05/20 02:39:55;;;;;;;12.90;7.78;;;10.20;99.90;;;;;;5081914;28;20053;-72
2023/05/20 02:42:23;;;;;;;13.48;8.45;;;10.20;99.90;;;;;;5101983;28;20046;-72
2023/05/20 02:44:49;;;;;;;10.75;7.43;;;10.10;99.90;;;;;;5099684;28;20060;-72
2023/05/20 02:47:15;;;;;;;10.32;7.78;;;10.10;99.90;;;;;;5087098;28;20632;-72
2023/05/20 02:49:41;;;;;;;11.63;8.27;;;10.10;99.90;;;;;;5068300;28;20146;-72
2023/05/20 02:52:07;;;;;;;12.23;7.80;;;10.10;99.90;;;;;;5078009;28;20501;-72
2023/05/20 02:54:33;;;;;;;10.25;7.68;;;10.10;99.90;;;;;;5104256;28;20118;-72
2023/05/20 02:56:59;;;;;;;10.32;7.25;;;10.10;99.90;;;;;;5084652;28;20099;-72
2023/05/20 02:59:25;;;;;;;10.60;7.55;;;10.10;99.90;;;;;;5069911;28;20055;-72
2023/05/20 03:01:51;;;;;;;11.38;7.35;;;10.10;99.90;;;;;;5071634;28;20050;-72
2023/05/20 03:04:17;;;;;;;10.32;7.70;;;10.10;99.90;;;;;;5106259;28;20101;-72
2023/05/20 03:06:45;;;;;;;10.25;7.47;;;10.10;99.90;;;;;;5100642;28;20040;-72
2023/05/20 03:09:11;;;;;;;12.25;8.10;;;10.10;99.90;;;;;;5121117;27;20628;-72
2023/05/20 03:11:36;;;;;;;11.00;7.32;;;10.00;99.90;;;;;;5087392;28;20473;-73
2023/05/20 03:14:02;;;;;;;11.63;8.10;;;10.00;99.90;;;;;;5065864;28;20043;-73
2023/05/20 03:16:28;;;;;;;9.57;7.15;;;10.00;99.90;;;;;;5085693;28;20048;-72
2023/05/20 03:18:54;;;;;;;9.98;6.72;;;10.00;99.90;;;;;;5063198;28;20059;-72
2023/05/20 03:21:22;;;;;;;10.38;6.88;;;10.00;99.90;;;;;;5086203;28;20039;-72
2023/05/20 03:23:48;;;;;;;8.43;6.72;;;10.00;99.90;;;;;;5089390;28;20498;-72
2023/05/20 03:26:14;;;;;;;10.00;6.68;;;10.00;99.90;;;;;;5105485;28;20046;-72
2023/05/20 03:28:39;;;;;;;10.27;7.32;;;10.00;99.90;;;;;;5067194;28;20039;-72
2023/05/20 03:31:08;;;;;;;10.63;7.15;;;10.00;99.90;;;;;;5101353;27;20513;-72
2023/05/20 03:33:34;;;;;;;10.55;7.07;;;10.10;99.90;;;;;;5070613;28;20043;-72
2023/05/20 03:36:00;;;;;;;9.38;6.50;;;10.10;99.90;;;;;;5088469;28;20063;-72
2023/05/20 03:38:26;;;;;;;9.05;6.00;;;10.10;99.90;;;;;;5052586;28;20173;-72
2023/05/20 03:40:52;;;;;;;10.00;6.32;;;10.00;99.90;;;;;;5102060;28;20402;-72
2023/05/20 03:43:18;;;;;;;9.35;6.63;;;10.00;99.90;;;;;;5087201;28;21670;-72
2023/05/20 03:45:44;;;;;;;11.25;6.50;;;10.00;99.90;;;;;;5071490;28;20144;-72
2023/05/20 03:48:12;;;;;;;7.43;5.75;;;10.00;99.90;;;;;;5066907;28;20042;-72
2023/05/20 03:50:41;;;;;;;9.77;6.35;;;10.00;99.90;;;;;;5072175;28;20415;-72
2023/05/20 03:53:07;;;;;;;10.40;6.82;;;10.00;99.90;;;;;;5083783;28;20036;-72
2023/05/20 03:55:33;;;;;;;9.02;6.65;;;10.00;99.90;;;;;;5072220;28;20032;-72
2023/05/20 03:58:00;;;;;;;7.90;6.05;;;10.00;99.90;;;;;;5086513;28;20088;-72
2023/05/20 04:00:26;;;;;;;9.15;6.00;;;10.00;99.90;;;;;;5098210;27;20062;-72
2023/05/20 04:02:52;;;;;;;11.13;6.38;;;10.00;99.90;;;;;;5061194;28;20039;-72
2023/05/20 04:05:18;;;;;;;10.02;5.93;;;10.00;99.90;;;;;;5133519;27;20092;-72
2023/05/20 04:07:45;;;;;;;8.80;6.22;;;10.00;99.90;;;;;;5114580;27;20076;-72
2023/05/20 04:10:11;;;;;;;9.32;6.10;;;10.00;99.90;;;;;;5093306;28;20058;-72
2023/05/20 04:12:37;;;;;;;7.28;5.53;;;10.00;99.90;;;;;;5081695;27;20088;-73
2023/05/20 04:15:03;;;;;;;8.25;5.45;;;10.00;99.90;;;;;;5119227;27;20043;-72
2023/05/20 04:17:29;;;;;;;8.40;5.15;;;10.10;99.90;;;;;;5128738;27;20043;-72
2023/05/20 04:19:56;;;;;;;8.13;5.22;;;10.10;99.90;;;;;;5134303;27;20424;-72
2023/05/20 04:22:22;;;;;;;6.88;5.57;;;10.20;99.90;;;;;;5140140;27;20124;-72
2023/05/20 04:24:48;;;;;;;8.32;5.20;;;10.20;99.90;;;;;;5080979;28;20036;-72
2023/05/20 04:27:15;;;;;;;6.93;4.85;;;10.20;99.90;;;;;;5072970;28;20052;-72
2023/05/20 04:29:44;;;;;;;7.40;5.03;;;10.20;99.90;;;;;;5097387;28;20039;-72
2023/05/20 04:32:16;;;;;;;7.43;5.03;;;10.30;99.90;;;;;;5098452;28;20057;-73
2023/05/20 04:34:43;;;;;;;7.65;5.00;;;10.30;99.90;;;;;;5085241;28;20062;-72
2023/05/20 04:37:10;;;;;;;7.38;4.60;;;10.30;99.90;;;;;;5093742;28;20110;-72
2023/05/20 04:39:37;;;;;;;6.72;4.80;;;10.40;99.90;;;;;;5121592;27;20080;-73
2023/05/20 04:42:06;;;;;;;7.05;4.13;;;10.40;99.90;;;;;;5078809;28;20052;-72
2023/05/20 04:44:35;;;;;;;7.03;4.43;;;10.60;99.90;;;;;;5073959;28;20457;-72
2023/05/20 04:47:00;;;;;;;8.43;5.25;;;10.50;99.90;;;;;;5087394;28;20033;-73
2023/05/20 04:49:28;;;;;;;5.90;4.57;;;10.60;99.90;;;;;;5085648;28;20920;-73
2023/05/20 04:51:54;;;;;;;8.38;4.45;;;10.60;99.90;;;;;;5121808;27;20052;-73
2023/05/20 04:54:24;;;;;;;7.55;4.70;;;10.70;99.90;;;;;;5122122;27;20148;-73
2023/05/20 04:56:50;;;;;;;5.77;4.27;;;10.80;99.90;;;;;;5097353;28;20055;-72
2023/05/20 04:59:15;;;;;;;6.82;4.32;;;10.80;99.90;;;;;;5101654;28;20292;-72
2023/05/20 05:01:44;;;;;;;7.05;4.10;;;10.90;99.90;;;;;;5079023;28;20122;-73
2023/05/20 05:04:10;;;;;;;8.10;4.10;;;11.00;99.90;;;;;;5114118;27;20044;-73
2023/05/20 05:06:36;;;;;;;5.75;3.45;;;11.10;99.90;;;;;;5117721;27;20050;-73
2023/05/20 05:09:02;;;;;;;8.90;3.92;;;11.20;99.90;;;;;;5092124;28;20100;-73
2023/05/20 05:11:27;;;;;;;4.93;2.90;;;11.30;99.90;;;;;;5087993;28;20036;-73
2023/05/20 05:13:54;;;;;;;5.53;3.42;;;11.40;99.90;;;;;;5091815;27;20043;-73
2023/05/20 05:16:20;;;;;;;6.25;3.42;;;11.50;99.90;;;;;;5078788;28;20720;-73
2023/05/20 05:18:46;;;;;;;5.43;3.35;;;11.60;99.90;;;;;;5121656;27;20189;-72
2023/05/20 05:21:12;;;;;;;6.10;3.10;;;11.70;99.90;;;;;;5136551;27;20047;-72
2023/05/20 05:23:37;;;;;;;6.63;3.60;;;11.70;99.90;;;;;;5122490;27;20040;-73
2023/05/20 05:26:03;;;;;;;5.85;2.90;;;11.80;99.90;;;;;;5108288;27;20040;-73
2023/05/20 05:28:29;;;;;;;5.47;2.80;;;11.80;99.90;;;;;;5093224;28;20048;-72
2023/05/20 05:30:55;;;;;;;5.88;2.88;;;11.80;99.90;;;;;;5104588;28;20051;-73
2023/05/20 05:33:21;;;;;;;5.95;2.80;;;11.70;99.90;;;;;;5072532;28;20421;-72
2023/05/20 05:35:47;;;;;;;4.53;2.80;;;11.70;99.90;;;;;;5084631;28;20043;-73
2023/05/20 05:38:13;;;;;;;4.93;2.70;;;11.60;99.90;;;;;;5097894;28;20054;-73
2023/05/20 05:40:40;;;;;;;5.88;2.90;;;11.60;99.90;;;;;;5092320;28;20035;-73
2023/05/20 05:43:06;;;;;;;5.68;2.40;;;11.70;99.90;;;;;;5128055;27;20828;-73
2023/05/20 05:45:31;;;;;;;6.43;2.60;;;11.80;99.90;;;;;;5084369;28;20131;-72
2023/05/20 05:47:57;;;;;;;4.72;2.22;;;11.90;99.90;;;;;;5106063;27;20032;-73
2023/05/20 05:50:23;;;;;;;5.65;2.10;;;12.00;99.90;;;;;;5129991;27;20047;-73
2023/05/20 05:52:49;;;;;;;3.92;2.30;;;12.00;99.90;;;;;;5098806;28;20040;-73
2023/05/20 05:55:17;;;;;;;4.68;2.40;;;12.10;99.90;;;;;;5109950;27;20048;-73
2023/05/20 05:57:43;;;;;;;4.10;2.20;;;12.20;99.90;;;;;;5088425;28;20563;-73
2023/05/20 06:00:09;;;;;;;4.85;2.33;;;12.20;99.90;;;;;;5106221;27;20039;-73
2023/05/20 06:02:35;;;;;;;4.18;2.00;;;12.30;99.90;;;;;;5097600;28;20901;-73
2023/05/20 06:05:04;;;;;;;3.95;2.00;;;12.40;99.90;;;;;;5109303;27;20036;-73
2023/05/20 06:07:30;;;;;;;3.85;2.25;;;12.40;99.90;;;;;;5124395;27;20487;-73
2023/05/20 06:09:56;;;;;;;5.30;2.50;;;12.50;99.90;;;;;;5100668;28;20069;-74
2023/05/20 06:12:22;;;;;;;7.72;2.33;;;12.60;99.90;;;;;;5083155;28;20596;-73
2023/05/20 06:14:48;;;;;;;6.75;2.08;;;12.60;99.90;;;;;;5111315;27;20118;-73
2023/05/20 06:17:14;;;;;;;3.85;2.20;;;12.70;99.90;;;;;;5113523;27;20379;-73
2023/05/20 06:19:39;;;;;;;3.70;2.10;;;12.80;99.90;;;;;;5094703;28;20046;-73
2023/05/20 06:22:05;;;;;;;5.00;2.30;;;12.90;99.90;;;;;;5082341;28;20047;-73
2023/05/20 06:24:33;;;;;;;3.75;2.00;;;12.90;99.90;;;;;;5082760;28;20465;-73
2023/05/20 06:26:58;;;;;;;5.53;2.35;;;13.00;99.90;;;;;;5118194;27;20047;-73
2023/05/20 06:29:24;;;;;;;4.90;2.08;;;13.00;99.90;;;;;;5105952;28;20537;-73
2023/05/20 06:31:53;;;;;;;4.55;2.13;;;13.00;99.90;;;;;;5086230;28;20047;-73
2023/05/20 06:34:19;;;;;;;3.13;1.80;;;13.10;99.90;;;;;;5074920;28;20048;-73
2023/05/20 06:36:44;;;;;;;4.57;2.33;;;13.10;99.90;;;;;;5096891;28;20074;-73
2023/05/20 06:39:11;;;;;;;4.72;2.00;;;13.20;99.90;;;;;;5086538;28;20215;-73
2023/05/20 06:41:40;;;;;;;5.05;2.33;;;13.30;99.90;;;;;;5070950;28;20047;-73
2023/05/20 06:44:06;;;;;;;3.17;1.88;;;13.30;99.90;;;;;;5097348;28;20085;-73
2023/05/20 06:46:33;;;;;;;4.70;2.20;;;13.40;99.90;;;;;;5088884;28;20563;-73
2023/05/20 06:48:58;;;;;;;4.03;1.67;;;13.50;99.90;;;;;;5087528;28;20051;-73
2023/05/20 06:51:26;;;;;;;2.55;1.75;;;13.50;99.90;;;;;;5080594;28;20949;-72
2023/05/20 06:53:51;;;;;;;4.63;2.42;;;13.60;99.90;;;;;;5082485;28;20073;-73
2023/05/20 06:56:17;;;;;;;3.88;2.03;;;13.60;99.90;;;;;;5115270;27;20039;-73
2023/05/20 06:58:43;;;;;;;4.32;1.92;;;13.70;99.90;;;;;;5096310;28;20044;-73
2023/05/20 07:01:09;;;;;;;3.75;2.13;;;13.80;99.90;;;;;;5089024;28;20115;-73
2023/05/20 07:03:35;;;;;;;4.07;1.90;;;13.80;99.90;;;;;;5092500;28;20387;-73
2023/05/20 07:06:01;;;;;;;3.40;2.00;;;13.80;99.90;;;;;;5092033;28;20032;-73
2023/05/20 07:08:27;;;;;;;3.08;1.80;;;13.90;99.90;;;;;;5092256;28;20693;-73
2023/05/20 07:10:55;;;;;;;5.40;2.40;;;14.10;99.90;;;;;;5115894;27;20051;-73
2023/05/20 07:13:22;;;;;;;4.22;1.70;;;14.20;99.90;;;;;;5080127;28;20051;-74
2023/05/20 07:15:49;;;;;;;5.63;2.20;;;14.30;99.90;;;;;;5109737;27;20050;-72
2023/05/20 07:18:15;;;;;;;4.28;2.08;;;14.40;99.90;;;;;;5092976;28;20527;-74
2023/05/20 07:20:40;;;;;;;4.15;2.10;;;14.40;99.90;;;;;;5098512;27;20493;-73
2023/05/20 07:23:06;;;;;;;3.90;1.80;;;14.40;99.90;;;;;;5078570;28;20514;-73
2023/05/20 07:25:32;;;;;;;5.55;2.28;;;14.50;99.90;;;;;;5076908;28;20062;-72
2023/05/20 07:27:59;;;;;;;6.32;2.10;;;14.60;99.90;;;;;;5088941;28;20127;-73
2023/05/20 07:30:26;;;;;;;5.57;1.92;;;14.70;99.90;;;;;;5093116;28;20127;-73
2023/05/20 07:32:52;;;;;;;4.22;1.90;;;14.80;99.90;;;;;;5082593;28;20043;-73
2023/05/20 07:35:17;;;;;;;3.75;2.10;;;14.90;99.90;;;;;;5099728;28;20048;-73
2023/05/20 07:37:43;;;;;;;4.05;2.10;;;15.00;99.80;;;;;;5086881;28;20054;-73
2023/05/20 07:40:09;;;;;;;7.03;2.10;;;15.10;99.80;;;;;;5138615;27;20046;-74
2023/05/20 07:42:35;;;;;;;3.70;2.00;;;15.20;99.90;;;;;;5087777;28;20486;-74
2023/05/20 07:45:01;;;;;;;3.85;2.30;;;15.30;98.60;;;;;;5120226;27;20044;-73
2023/05/20 07:47:27;;;;;;;3.55;1.80;;;15.30;99.50;;;;;;5102155;28;20138;-72
2023/05/20 07:49:53;;;;;;;6.45;2.20;;;15.50;98.10;;;;;;5106098;28;20040;-73
2023/05/20 07:52:19;;;;;;;4.38;2.30;;;15.50;97.50;;;;;;5089373;28;20055;-73
2023/05/20 07:54:44;;;;;;;4.85;2.10;;;15.50;97.70;;;;;;5132480;27;20082;-73
2023/05/20 07:57:10;;;;;;;5.90;2.45;;;15.60;97.70;;;;;;5101516;27;20640;-73
2023/05/20 07:59:36;;;;;;;5.80;2.40;;;15.70;98.00;;;;;;5100432;27;20058;-74
2023/05/20 08:02:02;;;;;;;5.00;2.80;;;15.80;97.50;;;;;;5070781;28;20122;-73
2023/05/20 08:04:28;;;;;;;4.38;2.22;;;15.90;96.00;;;;;;5086920;28;20664;-73
2023/05/20 08:06:54;;;;;;;4.13;2.30;;;15.90;96.70;;;;;;5083458;28;20047;-74
2023/05/20 08:09:20;;;;;;;6.10;2.53;;;16.00;97.10;;;;;;5085429;28;20055;-73
2023/05/20 08:11:46;;;;;;;4.40;2.20;;;16.10;96.70;;;;;;5068747;28;20158;-72
2023/05/20 08:14:12;;;;;;;4.75;2.60;;;16.20;96.80;;;;;;5087496;28;20126;-74
2023/05/20 08:16:38;;;;;;;6.60;2.30;;;16.30;96.40;;;;;;5100967;27;20040;-73
2023/05/20 08:19:04;;;;;;;4.88;2.10;;;16.40;95.80;;;;;;5079730;28;20092;-73
2023/05/20 08:21:30;;;;;;;5.20;2.33;;;16.50;95.40;;;;;;5088365;28;20035;-74
2023/05/20 08:23:55;;;;;;;5.25;2.45;;;16.60;95.10;;;;;;5083177;28;20104;-74
2023/05/20 08:26:21;;;;;;;3.28;2.55;;;16.70;96.00;;;;;;5083876;28;20152;-73
2023/05/20 08:28:47;;;;;;;4.50;2.70;;;16.80;95.20;;;;;;5066159;28;20055;-73
2023/05/20 08:31:13;;;;;;;4.93;2.50;;;16.80;94.20;;;;;;5099760;28;20036;-73
2023/05/20 08:33:39;;;;;;;6.97;2.65;;;16.90;94.60;;;;;;5115067;27;20104;-74
2023/05/20 08:36:07;;;;;;;5.65;2.45;;;17.00;94.80;;;;;;5102589;27;20040;-74
2023/05/20 08:38:32;;;;;;;4.38;2.42;;;17.10;94.30;;;;;;5096447;28;20047;-74
2023/05/20 08:40:58;;;;;;;4.00;2.30;;;17.10;94.70;;;;;;5101799;28;20058;-73
2023/05/20 08:43:25;;;;;;;4.97;2.47;;;17.30;93.50;;;;;;5102709;28;20054;-75
2023/05/20 08:45:51;;;;;;;4.80;2.63;;;17.30;93.00;;;;;;5095056;28;20136;-72
2023/05/20 08:48:17;;;;;;;4.65;2.83;;;17.30;92.70;;;;;;5069851;28;20066;-73
2023/05/20 08:50:56;;;;;;;4.93;2.40;;;17.30;92.40;;;;;;5086732;28;20078;-74
2023/05/20 08:53:22;;;;;;;5.47;2.70;;;17.40;92.80;;;;;;5089366;28;20070;-73
2023/05/20 08:55:56;;;;;;;4.20;2.50;;;17.50;92.60;;;;;;5081471;28;20054;-74
2023/05/20 08:58:23;;;;;;;5.75;2.70;;;17.50;91.80;;;;;;5115576;27;20043;-73
2023/05/20 09:00:50;;;;;;;6.68;2.80;;;17.60;90.90;;;;;;5115725;27;20050;-73
2023/05/20 09:03:16;;;;;;;4.72;2.53;;;17.70;89.00;;;;;;5138219;27;20043;-73
2023/05/20 09:05:42;;;;;;;5.70;2.50;;;17.60;89.80;;;;;;5080931;28;20040;-73
2023/05/20 09:08:09;;;;;;;5.13;2.60;;;17.60;90.10;;;;;;5068063;28;20784;-74
2023/05/20 09:10:36;;;;;;;7.00;2.67;;;17.70;91.10;;;;;;5084136;28;20036;-74
2023/05/20 09:13:03;;;;;;;4.47;2.92;;;17.80;89.00;;;;;;5118270;27;20044;-74
2023/05/20 09:15:33;;;;;;;4.65;2.60;;;17.80;88.40;;;;;;5089091;28;20035;-73
2023/05/20 09:18:02;;;;;;;;;;;17.90;89.40;;;;;;5132580;27;20047;-74
2023/05/20 09:20:28;;;;;;;4.25;2.67;;;17.90;88.30;;;;;;5133202;27;19931;-74
2023/05/20 09:23:01;;;;;;;4.15;2.78;;;18.00;88.00;;;;;;5069190;28;20558;-73
2023/05/20 09:25:28;;;;;;;5.75;2.95;;;18.20;88.90;;;;;;5104879;27;20036;-74
2023/05/20 09:27:54;;;;;;;3.65;2.42;;;18.30;88.20;;;;;;5083190;28;20063;-74
2023/05/20 09:30:21;;;;;;;4.32;2.50;;;18.40;87.00;;;;;;5066611;28;20051;-74
2023/05/20 09:32:57;;;;;;;6.25;2.83;;;18.40;87.80;;;;;;5068633;28;20039;-75
2023/05/20 09:35:25;;;;;;;6.03;2.88;;;18.50;84.50;;;;;;5094808;28;20062;-74
2023/05/20 09:37:56;;;;;;;3.08;2.08;;;18.50;84.90;;;;;;5136686;27;20055;-74
2023/05/20 09:40:27;;;;;;;3.63;2.38;;;18.60;86.40;;;;;;5138617;27;20386;-75
2023/05/20 09:43:03;;;;;;;3.88;2.45;;;18.70;84.70;;;;;;5117525;27;20055;-76
2023/05/20 09:45:29;;;;;;;4.63;2.38;;;18.70;81.40;;;;;;5100552;28;20038;-74
2023/05/20 09:47:56;;;;;;;5.45;2.63;;;18.60;84.40;;;;;;5097142;28;20050;-76
2023/05/20 09:50:23;;;;;;;5.82;2.47;;;18.60;83.50;;;;;;5103973;28;20115;-75
2023/05/20 09:52:53;;;;;;;5.75;2.08;;;18.60;81.50;;;;;;5082779;28;20047;-73
2023/05/20 09:55:23;;;;;;;;;;;18.80;78.10;;;;;;5086888;28;20501;-75
2023/05/20 09:57:48;;;;;;;5.97;2.17;;;18.80;77.50;;;;;;5093171;28;19923;-75
2023/05/20 10:00:18;;;;;;;3.58;1.98;;;18.80;76.80;;;;;;5082795;28;20052;-74
2023/05/20 10:02:49;;;;;;;4.20;2.13;;;18.80;75.40;;;;;;5115395;27;20583;-76
2023/05/20 10:05:28;;;;;;;4.63;2.22;;;18.90;74.40;;;;;;5118359;27;20050;-77
2023/05/20 10:07:54;;;;;;;5.20;2.53;;;18.90;72.90;;;;;;5130421;27;20567;-76
2023/05/20 10:10:57;;;;;;;4.25;2.10;;;18.90;74.40;;;;;;5099725;28;20130;-76
2023/05/20 10:13:35;;;;;;;4.13;1.80;;;19.00;75.10;;;;;;5082103;28;20454;-76
2023/05/20 10:16:19;;;;;;;5.18;2.20;;;19.20;73.80;;;;;;5132376;27;20777;-75
2023/05/20 10:18:56;;;;;;;4.28;2.60;;;19.30;72.70;;;;;;5098710;28;20036;-77
2023/05/20 10:21:23;;;;;;;4.18;2.67;;;19.20;70.90;;;;;;5100173;28;20697;-76
2023/05/20 10:23:50;;;;;;;6.00;2.30;;;19.00;71.30;;;;;;5085668;28;20079;-72
2023/05/20 10:26:17;;;;;;;5.00;2.42;;;18.70;72.80;;;;;;5100148;28;20070;-74
2023/05/20 10:28:44;;;;;;;5.53;2.33;;;18.70;74.30;;;;;;5096284;28;20036;-74
2023/05/20 10:31:23;;;;;;;5.70;2.53;;;18.60;74.30;;;;;;5079003;28;20044;-74
2023/05/20 10:33:52;;;;;;;4.32;2.05;;;18.70;75.30;;;;;;5096907;28;20146;-73
2023/05/20 10:36:29;;;;;;;4.20;2.17;;;18.80;73.20;;;;;;5097482;28;20263;-74
2023/05/20 10:38:58;;;;;;;6.55;2.50;;;18.80;73.60;;;;;;5098771;28;20054;-75
2023/05/20 10:41:26;;;;;;;4.38;2.42;;;18.90;73.90;;;;;;5069884;28;20047;-74
2023/05/20 10:44:00;;;;;;;6.70;2.30;;;18.90;73.70;;;;;;5085068;28;20480;-75
2023/05/20 10:46:25;;;;;;;5.40;2.20;;;18.80;74.70;;;;;;5101983;28;20484;-76
2023/05/20 10:48:51;;;;;;;4.82;2.22;;;18.80;72.90;;;;;;5103750;28;20046;-76
2023/05/20 10:51:18;;;;;;;6.85;2.20;;;18.70;73.70;;;;;;5099513;28;20406;-76
2023/05/20 10:53:45;;;;;;;4.97;2.38;;;18.70;72.00;;;;;;5120981;27;20188;-78
2023/05/20 10:56:18;;;;;;;9.60;2.80;;;18.70;73.30;;;;;;5068726;28;20440;-75
2023/05/20 10:58:45;;;;;;;5.15;2.67;;;18.60;73.50;;;;;;5083112;28;20551;-76
2023/05/20 11:01:12;;;;;;;5.82;2.65;;;18.60;73.90;;;;;;5101339;28;20170;-75
2023/05/20 11:03:40;;;;;;;5.53;2.00;;;18.70;73.80;;;;;;5083633;28;20035;-74
2023/05/20 11:06:18;;;;;;;7.32;2.58;;;18.70;74.40;;;;;;5101054;28;20054;-75
2023/05/20 11:08:45;;;;;;;5.15;2.80;;;18.90;71.40;;;;;;5065985;27;20048;-75
2023/05/20 11:11:14;;;;;;;4.65;2.10;;;18.90;72.50;;;;;;5103994;27;20032;-78
2023/05/20 11:13:40;;;;;;;3.93;1.90;;;19.00;73.00;;;;;;5073233;28;20058;-73
2023/05/20 11:16:06;;;;;;;4.07;2.17;;;19.30;72.20;;;;;;5102431;28;20301;-73
2023/05/20 11:18:32;;;;;;;4.68;2.60;;;19.50;69.20;;;;;;5120518;27;20103;-72
2023/05/20 11:21:02;;;;;;;4.72;2.20;;;19.50;70.10;;;;;;5069116;28;20044;-74
2023/05/20 11:23:28;;;;;;;4.45;1.90;;;19.40;70.90;;;;;;5085889;28;20043;-74
2023/05/20 11:25:56;;;;;;;5.18;2.35;;;19.40;69.90;;;;;;5105730;28;20040;-73
2023/05/20 11:28:22;;;;;;;6.40;2.13;;;19.40;71.70;;;;;;5081129;28;20170;-74
2023/05/20 11:30:50;;;;;;;3.60;1.90;;;19.50;68.40;;;;;;5105824;27;20099;-75
2023/05/20 11:33:17;;;;;;;4.40;1.98;;;19.50;68.10;;;;;;5103240;28;20074;-74
2023/05/20 11:35:48;;;;;;;4.47;2.08;;;19.50;69.90;;;;;;5089069;28;20206;-75
2023/05/20 11:38:14;;;;;;;4.75;2.20;;;19.50;69.70;;;;;;5086080;28;20028;-73
2023/05/20 11:40:45;;;;;;;5.70;1.92;;;19.40;69.10;;;;;;5104663;28;20035;-74
2023/05/20 11:43:12;;;;;;;5.22;2.30;;;19.30;69.20;;;;;;5105058;28;20419;-73
2023/05/20 11:46:00;;;;;;;3.58;1.90;;;19.30;70.30;;;;;;5084201;28;20548;-73
2023/05/20 11:48:26;;;;;;;3.30;1.90;;;19.40;68.70;;;;;;5084998;28;20050;-71
2023/05/20 11:50:53;;;;;;;4.65;2.00;;;19.50;69.00;;;;;;5083698;28;20048;-74
2023/05/20 11:53:21;;;;;;;3.63;1.85;;;19.60;70.00;;;;;;5087790;28;20045;-74
2023/05/20 11:55:52;;;;;;;5.53;2.45;;;19.80;68.30;;;;;;5098681;28;20062;-74
2023/05/20 11:58:25;;;;;;;3.70;1.95;;;19.80;67.40;;;;;;5121318;27;20043;-73
2023/05/20 12:00:51;;;;;;;5.82;2.60;;;19.70;69.40;;;;;;5080933;28;20116;-74
2023/05/20 12:03:17;;;;;;;4.60;2.22;;;19.60;68.60;;;;;;5136429;27;20039;-75
2023/05/20 12:05:43;;;;;;;5.15;2.42;;;19.30;69.00;;;;;;5103349;27;20062;-73
2023/05/20 12:08:09;;;;;;;4.43;2.03;;;19.20;68.60;;;;;;5087952;28;20078;-74
2023/05/20 12:10:38;;;;;;;4.57;2.20;;;19.10;70.40;;;;;;5067105;28;20051;-73
2023/05/20 12:13:07;;;;;;;6.20;2.17;;;19.10;69.70;;;;;;5102549;28;20452;-74
2023/05/20 12:15:37;;;;;;;3.60;2.30;;;19.10;69.70;;;;;;5086855;28;20036;-73
2023/05/20 12:18:03;;;;;;;5.13;1.83;;;19.20;69.00;;;;;;5101535;28;20063;-74
2023/05/20 12:20:33;;;;;;;5.10;2.10;;;19.30;69.80;;;;;;5099034;28;20044;-74
2023/05/20 12:22:59;;;;;;;;;;;19.50;70.80;;;;;;5090692;28;20553;-75
2023/05/20 12:25:25;;;;;;;3.85;1.90;;;19.70;68.60;;;;;;5083451;27;19945;-74
2023/05/20 12:27:51;;;;;;;3.42;2.13;;;19.70;69.70;;;;;;5052546;28;20048;-74
2023/05/20 12:30:19;;;;;;;3.85;1.92;;;19.80;67.70;;;;;;5049648;28;20063;-73
2023/05/20 12:32:46;;;;;;;5.00;2.38;;;19.60;68.20;;;;;;5085597;28;20115;-74
2023/05/20 12:35:12;;;;;;;6.00;2.33;;;19.60;68.90;;;;;;5085020;28;20067;-75
2023/05/20 12:37:40;;;;;;;4.13;2.00;;;19.70;67.90;;;;;;5099682;28;20048;-74
2023/05/20 12:40:10;;;;;;;6.30;2.25;;;19.60;67.50;;;;;;5132170;27;20048;-74
2023/05/20 12:42:37;;;;;;;5.32;2.63;;;19.60;67.40;;;;;;5086458;28;20059;-74
2023/05/20 12:45:03;;;;;;;5.28;2.20;;;19.50;67.80;;;;;;5131887;27;20063;-77